createdAt,value
2022-09-06T00:02:19.423Z,15.40
2022-09-06T00:04:46.244Z,15.40
2022-09-06T00:07:12.936Z,15.40
2022-09-06T00:09:39.910Z,15.40
2022-09-06T00:12:06.778Z,15.40
2022-09-06T00:14:33.482Z,15.40
2022-09-06T00:17:00.801Z,15.30
2022-09-06T00:26:55.680Z,15.20
2022-09-06T00:29:22.457Z,15.10
2022-09-06T00:31:49.140Z,15.10
2022-09-06T00:34:15.890Z,15.10
2022-09-06T00:36:42.573Z,15.10
2022-09-06T00:39:09.273Z,15.10
2022-09-06T00:41:35.942Z,14.90
2022-09-06T00:44:02.909Z,15.00
2022-09-06T00:46:31.475Z,15.00
2022-09-06T00:49:31.201Z,15.00
2022-09-06T00:52:02.678Z,15.00
2022-09-06T00:54:29.671Z,15.00
2022-09-06T00:56:58.101Z,15.00
2022-09-06T00:59:30.944Z,14.90
2022-09-06T01:01:58.430Z,14.90
2022-09-06T01:04:26.667Z,15.00
2022-09-06T01:07:16.360Z,15.00
2022-09-06T01:10:01.083Z,15.00
2022-09-06T01:12:55.612Z,15.00
2022-09-06T01:15:46.001Z,14.90
2022-09-06T01:18:28.835Z,14.90
2022-09-06T01:21:07.146Z,14.80
2022-09-06T01:24:01.793Z,14.70
2022-09-06T01:27:06.297Z,14.60
2022-09-06T01:29:56.716Z,14.50
2022-09-06T01:32:56.016Z,14.50
2022-09-06T01:35:46.012Z,14.50
2022-09-06T01:38:14.283Z,14.50
2022-09-06T01:40:41.184Z,14.50
2022-09-06T01:43:11.275Z,14.50
2022-09-06T01:45:57.022Z,14.50
2022-09-06T01:48:47.172Z,14.50
2022-09-06T01:51:38.926Z,14.50
2022-09-06T01:54:43.124Z,14.40
2022-09-06T01:57:37.601Z,14.30
2022-09-06T02:00:11.531Z,14.30
2022-09-06T02:03:01.610Z,14.30
2022-09-06T02:05:45.811Z,14.30
2022-09-06T02:08:33.830Z,14.30
2022-09-06T02:11:07.518Z,14.30
2022-09-06T02:13:58.602Z,14.40
2022-09-06T02:16:27.632Z,14.50
2022-09-06T02:19:00.844Z,14.50
2022-09-06T02:21:35.113Z,14.50
2022-09-06T02:24:05.647Z,14.40
2022-09-06T02:26:37.134Z,14.30
2022-09-06T02:29:04.596Z,14.20
2022-09-06T02:31:40.062Z,14.20
2022-09-06T02:34:08.040Z,14.10
2022-09-06T02:36:37.231Z,14.10
2022-09-06T02:39:05.568Z,14.20
2022-09-06T02:41:33.336Z,14.10
2022-09-06T02:44:00.051Z,14.00
2022-09-06T02:46:26.880Z,14.00
2022-09-06T02:48:53.634Z,14.00
2022-09-06T02:51:20.692Z,14.00
2022-09-06T02:53:47.439Z,14.00
2022-09-06T02:56:14.274Z,14.10
2022-09-06T02:58:41.049Z,14.10
2022-09-06T03:01:07.864Z,14.10
2022-09-06T03:03:35.090Z,14.00
2022-09-06T03:06:01.904Z,13.80
2022-09-06T03:08:33.346Z,13.70
2022-09-06T03:11:00.830Z,13.60
2022-09-06T03:13:27.856Z,13.60
2022-09-06T03:15:56.951Z,13.70
2022-09-06T03:18:28.927Z,13.80
2022-09-06T03:20:56.729Z,13.80
2022-09-06T03:23:25.701Z,13.90
2022-09-06T03:25:52.533Z,13.90
2022-09-06T03:28:20.280Z,14.00
2022-09-06T03:30:48.444Z,14.00
2022-09-06T03:33:16.062Z,14.10
2022-09-06T03:35:58.125Z,14.10
2022-09-06T03:38:26.570Z,14.20
2022-09-06T03:40:53.858Z,14.20
2022-09-06T03:43:21.481Z,14.20
2022-09-06T03:45:50.063Z,14.20
2022-09-06T03:48:18.381Z,14.20
2022-09-06T03:50:46.453Z,14.30
2022-09-06T03:53:14.050Z,14.20
2022-09-06T03:55:40.796Z,14.20
2022-09-06T03:58:07.489Z,14.20
2022-09-06T04:00:34.240Z,14.20
2022-09-06T04:03:01.972Z,14.20
2022-09-06T04:05:28.820Z,14.20
2022-09-06T04:07:55.537Z,14.20
2022-09-06T04:10:22.283Z,14.30
2022-09-06T04:12:48.961Z,14.30
2022-09-06T04:15:15.760Z,14.30
2022-09-06T04:17:46.594Z,14.40
2022-09-06T04:20:15.017Z,14.30
2022-09-06T04:22:42.378Z,14.30
2022-09-06T04:25:09.378Z,14.30
2022-09-06T04:27:36.128Z,14.30
2022-09-06T04:30:02.939Z,14.30
2022-09-06T04:32:29.645Z,14.20
2022-09-06T04:34:56.321Z,14.10
2022-09-06T04:37:23.023Z,14.10
2022-09-06T04:39:49.811Z,14.10
2022-09-06T04:42:16.794Z,14.10
2022-09-06T04:44:43.526Z,14.10
2022-09-06T04:47:15.309Z,14.10
2022-09-06T04:49:42.849Z,14.10
2022-09-06T04:52:10.124Z,14.10
2022-09-06T04:54:36.769Z,14.20
2022-09-06T04:57:04.062Z,14.30
2022-09-06T04:59:30.676Z,14.40
2022-09-06T05:01:57.436Z,14.40
2022-09-06T05:04:24.633Z,14.40
2022-09-06T05:07:01.087Z,14.50
2022-09-06T05:09:27.829Z,14.50
2022-09-06T05:11:54.565Z,14.50
2022-09-06T05:14:21.821Z,14.60
2022-09-06T05:16:48.649Z,14.70
2022-09-06T05:19:15.668Z,14.70
2022-09-06T05:21:42.540Z,14.80
2022-09-06T05:24:09.226Z,14.70
2022-09-06T05:26:35.970Z,14.80
2022-09-06T05:29:02.797Z,14.80
2022-09-06T05:31:34.193Z,14.70
2022-09-06T05:34:01.204Z,14.70
2022-09-06T05:36:29.374Z,14.70
2022-09-06T05:38:56.779Z,14.60
2022-09-06T05:41:24.490Z,14.60
2022-09-06T05:43:51.277Z,14.60
2022-09-06T05:46:18.216Z,14.60
2022-09-06T05:48:51.378Z,14.70
2022-09-06T05:51:18.083Z,14.70
2022-09-06T05:53:45.868Z,14.80
2022-09-06T05:56:14.564Z,14.90
2022-09-06T05:58:41.288Z,14.90
2022-09-06T06:01:22.314Z,14.90
2022-09-06T06:03:54.698Z,15.10
2022-09-06T06:06:22.592Z,15.20
2022-09-06T06:08:49.402Z,15.20
2022-09-06T06:11:17.012Z,15.20
2022-09-06T06:13:44.497Z,15.30
2022-09-06T06:16:13.753Z,15.30
2022-09-06T06:18:41.216Z,15.40
2022-09-06T06:21:19.202Z,15.40
2022-09-06T06:23:46.628Z,15.40
2022-09-06T06:26:13.850Z,15.40
2022-09-06T06:28:41.424Z,15.40
2022-09-06T06:31:10.652Z,15.40
2022-09-06T06:33:37.959Z,15.50
2022-09-06T06:36:18.628Z,15.60
2022-09-06T06:38:46.430Z,15.60
2022-09-06T06:41:15.449Z,15.70
2022-09-06T06:43:42.334Z,15.60
2022-09-06T06:46:15.059Z,15.60
2022-09-06T06:48:43.684Z,15.50
2022-09-06T06:51:12.248Z,15.60
2022-09-06T06:53:38.972Z,15.60
2022-09-06T06:56:16.631Z,15.60
2022-09-06T06:58:44.517Z,15.60
2022-09-06T07:01:11.987Z,15.50
2022-09-06T07:03:38.790Z,15.50
2022-09-06T07:06:13.211Z,15.50
2022-09-06T07:08:40.804Z,15.50
2022-09-06T07:11:09.865Z,15.50
2022-09-06T07:13:37.128Z,15.60
2022-09-06T07:16:08.027Z,15.70
2022-09-06T07:18:35.352Z,15.80
2022-09-06T07:26:31.631Z,16.10
2022-09-06T07:29:00.696Z,16.30
2022-09-06T07:34:15.958Z,16.50
2022-09-06T07:36:42.686Z,16.50
2022-09-06T07:39:09.390Z,16.70
2022-09-06T07:41:36.072Z,16.80
2022-09-06T07:44:03.310Z,16.80
2022-09-06T07:46:30.014Z,17.00
2022-09-06T07:48:56.795Z,17.00
2022-09-06T07:51:23.637Z,17.00
2022-09-06T07:54:06.889Z,17.00
2022-09-06T07:56:34.124Z,16.90
2022-09-06T07:59:00.830Z,17.00
2022-09-06T08:01:35.457Z,17.00
2022-09-06T08:04:05.164Z,17.20
2022-09-06T08:09:21.799Z,17.30
2022-09-06T08:11:48.776Z,17.50
2022-09-06T08:14:15.501Z,17.60
2022-09-06T08:16:42.224Z,17.70
2022-09-06T08:19:09.041Z,17.80
2022-09-06T08:21:35.818Z,17.80
2022-09-06T08:24:07.577Z,17.80
2022-09-06T08:26:36.013Z,17.80
2022-09-06T08:29:06.774Z,17.80
2022-09-06T08:31:35.593Z,17.70
2022-09-06T08:34:03.486Z,17.70
2022-09-06T08:36:31.151Z,17.70
2022-09-06T08:38:59.421Z,17.70
2022-09-06T08:41:53.209Z,17.70
2022-09-06T08:47:18.533Z,17.60
2022-09-06T08:49:48.149Z,17.70
2022-09-06T08:52:28.340Z,17.70
2022-09-06T08:55:16.941Z,17.70
2022-09-06T08:58:13.382Z,17.70
2022-09-06T09:00:46.894Z,17.80
2022-09-06T09:03:21.336Z,17.80
2022-09-06T09:05:52.610Z,18.00
2022-09-06T09:08:34.526Z,18.20
2022-09-06T09:11:07.469Z,18.40
2022-09-06T09:13:55.896Z,18.60
2022-09-06T09:16:23.154Z,18.70
2022-09-06T09:18:56.057Z,18.80
2022-09-06T09:21:30.173Z,18.70
2022-09-06T09:24:01.713Z,18.70
2022-09-06T09:26:34.946Z,18.70
2022-09-06T09:29:12.661Z,18.60
2022-09-06T09:31:53.698Z,18.90
2022-09-06T09:34:33.622Z,18.90
2022-09-06T09:40:40.145Z,19.20
2022-09-06T09:43:15.176Z,19.20
2022-09-06T09:45:43.241Z,19.30
2022-09-06T09:48:24.030Z,19.40
2022-09-06T09:50:50.861Z,19.70
2022-09-06T09:53:21.523Z,19.80
2022-09-06T09:55:54.552Z,20.00
2022-09-06T09:58:30.583Z,20.20
2022-09-06T10:01:12.042Z,20.40
2022-09-06T10:09:33.349Z,20.40
2022-09-06T10:12:00.272Z,20.30
2022-09-06T10:14:33.066Z,20.20
2022-09-06T10:17:00.630Z,20.20
2022-09-06T10:19:45.654Z,20.40
2022-09-06T10:22:35.341Z,20.50
2022-09-06T10:25:20.718Z,20.40
2022-09-06T10:28:25.010Z,20.50
2022-09-06T10:31:22.212Z,20.80
2022-09-06T10:34:10.770Z,20.80
2022-09-06T10:36:40.430Z,20.90
2022-09-06T10:39:37.668Z,20.90
2022-09-06T10:42:35.380Z,21.00
2022-09-06T10:45:19.541Z,21.20
2022-09-06T10:48:02.854Z,21.20
2022-09-06T10:50:51.586Z,21.30
2022-09-06T10:53:39.697Z,21.20
2022-09-06T10:56:12.798Z,21.10
2022-09-06T10:59:39.610Z,21.00
2022-09-06T11:02:18.545Z,21.00
2022-09-06T11:10:33.063Z,21.90
2022-09-06T11:13:10.532Z,21.90
2022-09-06T11:16:08.748Z,22.10
2022-09-06T11:18:54.988Z,22.40
2022-09-06T11:21:27.456Z,22.70
2022-09-06T11:24:03.861Z,22.80
2022-09-06T11:26:32.264Z,22.60
2022-09-06T11:29:05.841Z,22.30
2022-09-06T11:34:33.961Z,22.10
2022-09-06T11:37:04.098Z,22.10
2022-09-06T11:42:48.764Z,22.40
2022-09-06T11:45:41.262Z,23.20
2022-09-06T11:48:34.225Z,23.70
2022-09-06T11:51:06.691Z,23.70
2022-09-06T11:53:48.512Z,23.80
2022-09-06T11:56:53.455Z,23.90
2022-09-06T11:59:41.609Z,24.20
2022-09-06T12:02:28.266Z,24.20
2022-09-06T12:05:01.057Z,24.30
2022-09-06T12:07:29.555Z,24.10
2022-09-06T12:09:56.462Z,24.20
2022-09-06T12:12:41.010Z,24.40
2022-09-06T12:15:45.130Z,24.60
2022-09-06T12:18:46.684Z,25.00
2022-09-06T12:21:35.345Z,25.00
2022-09-06T12:24:03.321Z,24.90
2022-09-06T12:26:55.330Z,24.90
2022-09-06T12:29:25.950Z,25.10
2022-09-06T12:31:56.739Z,25.40
2022-09-06T12:34:28.357Z,25.60
2022-09-06T12:37:07.222Z,25.90
2022-09-06T12:39:34.920Z,25.70
2022-09-06T12:42:05.168Z,25.50
2022-09-06T12:44:38.537Z,25.80
2022-09-06T12:47:11.112Z,26.00
2022-09-06T12:49:37.944Z,26.00
2022-09-06T12:52:11.179Z,25.70
2022-09-06T12:54:49.633Z,25.70
2022-09-06T12:57:21.797Z,25.60
2022-09-06T12:59:54.064Z,25.40
2022-09-06T13:02:27.006Z,25.40
2022-09-06T13:05:02.625Z,25.40
2022-09-06T13:07:31.604Z,25.40
2022-09-06T13:10:02.472Z,25.40
2022-09-06T13:12:35.169Z,25.30
2022-09-06T13:15:11.822Z,25.30
2022-09-06T13:17:38.766Z,25.30
2022-09-06T13:20:11.559Z,25.30
2022-09-06T13:22:47.823Z,25.40
2022-09-06T13:25:25.333Z,25.60
2022-09-06T13:27:57.549Z,25.70
2022-09-06T13:30:42.055Z,25.80
2022-09-06T13:33:23.601Z,25.80
2022-09-06T13:36:04.187Z,25.80
2022-09-06T13:38:38.533Z,25.90
2022-09-06T13:41:26.362Z,26.00
2022-09-06T13:44:04.254Z,25.90
2022-09-06T13:46:33.227Z,26.10
2022-09-06T13:49:00.379Z,25.70
2022-09-06T13:51:27.661Z,25.80
2022-09-06T13:54:04.658Z,26.10
2022-09-06T13:56:31.777Z,26.20
2022-09-06T13:58:58.788Z,26.10
2022-09-06T14:01:25.660Z,26.10
2022-09-06T14:03:52.707Z,26.20
2022-09-06T14:06:19.654Z,26.40
2022-09-06T14:11:33.413Z,26.30
2022-09-06T14:14:00.166Z,26.50
2022-09-06T14:16:27.045Z,26.50
2022-09-06T14:18:53.743Z,26.40
2022-09-06T14:21:20.485Z,26.60
2022-09-06T14:23:51.535Z,26.70
2022-09-06T14:26:20.372Z,26.80
2022-09-06T14:28:47.650Z,26.80
2022-09-06T14:31:17.293Z,26.80
2022-09-06T14:33:44.109Z,26.80
2022-09-06T14:36:13.838Z,26.80
2022-09-06T14:38:42.305Z,26.80
2022-09-06T14:41:09.794Z,27.00
2022-09-06T14:43:37.173Z,27.00
2022-09-06T14:46:06.457Z,27.20
2022-09-06T14:48:34.404Z,27.30
2022-09-06T14:51:14.064Z,27.30
2022-09-06T14:53:42.459Z,27.20
2022-09-06T14:56:11.254Z,27.00
2022-09-06T14:58:39.705Z,26.70
2022-09-06T15:01:14.703Z,26.40
2022-09-06T15:03:43.978Z,26.20
2022-09-06T15:06:11.136Z,25.90
2022-09-06T15:08:37.975Z,25.60
2022-09-06T15:11:07.865Z,25.30
2022-09-06T15:13:37.093Z,25.20
2022-09-06T15:16:05.252Z,25.00
2022-09-06T15:18:33.108Z,24.80
2022-09-06T15:21:13.644Z,24.60
2022-09-06T15:23:40.839Z,24.40
2022-09-06T15:26:08.942Z,24.40
2022-09-06T15:28:37.011Z,24.40
2022-09-06T15:31:04.631Z,24.40
2022-09-06T15:33:33.487Z,24.60
2022-09-06T15:36:05.909Z,24.40
2022-09-06T15:38:41.087Z,24.60
2022-09-06T15:41:10.513Z,24.90
2022-09-06T15:43:41.670Z,25.10
2022-09-06T15:46:11.406Z,25.40
2022-09-06T15:48:45.465Z,25.50
2022-09-06T15:51:14.882Z,25.50
2022-09-06T15:53:42.194Z,25.50
2022-09-06T15:56:12.399Z,25.60
2022-09-06T15:58:39.455Z,25.50
2022-09-06T16:01:11.797Z,25.50
2022-09-06T16:03:41.936Z,25.40
2022-09-06T16:06:27.889Z,25.10
2022-09-06T16:09:07.593Z,25.00
2022-09-06T16:11:36.561Z,24.80
2022-09-06T16:14:05.183Z,24.60
2022-09-06T16:16:32.773Z,24.40
2022-09-06T16:19:00.146Z,24.30
2022-09-06T16:21:32.006Z,24.20
2022-09-06T16:24:00.906Z,24.30
2022-09-06T16:26:34.036Z,24.30
2022-09-06T16:29:01.625Z,24.50
2022-09-06T16:31:28.938Z,24.40
2022-09-06T16:33:57.676Z,24.20
2022-09-06T16:36:25.511Z,23.90
2022-09-06T16:38:52.382Z,23.60
2022-09-06T16:41:42.020Z,23.30
2022-09-06T16:44:10.367Z,23.30
2022-09-06T16:46:39.945Z,23.10
2022-09-06T16:49:06.753Z,23.10
2022-09-06T16:51:33.790Z,23.00
2022-09-06T16:54:00.953Z,22.80
2022-09-06T16:56:28.843Z,22.70
2022-09-06T16:58:58.600Z,22.50
2022-09-06T17:01:26.576Z,22.50
2022-09-06T17:03:53.845Z,22.40
2022-09-06T17:06:21.294Z,22.30
2022-09-06T17:08:48.278Z,22.20
2022-09-06T17:11:17.575Z,22.10
2022-09-06T17:13:46.633Z,22.00
2022-09-06T17:16:33.085Z,21.90
2022-09-06T17:19:01.182Z,21.80
2022-09-06T17:21:29.262Z,21.80
2022-09-06T17:23:58.629Z,21.70
2022-09-06T17:26:25.445Z,21.60
2022-09-06T17:28:52.473Z,21.50
2022-09-06T17:31:23.728Z,21.40
2022-09-06T17:33:53.166Z,21.30
2022-09-06T17:36:23.563Z,21.30
2022-09-06T17:38:53.339Z,21.10
2022-09-06T17:41:38.800Z,21.10
2022-09-06T17:44:07.507Z,21.00
2022-09-06T17:46:34.228Z,20.90
2022-09-06T17:49:00.944Z,20.80
2022-09-06T17:51:27.889Z,20.70
2022-09-06T17:53:54.684Z,20.60
2022-09-06T17:56:21.678Z,20.50
2022-09-06T17:58:54.153Z,20.50
2022-09-06T18:01:22.566Z,20.40
2022-09-06T18:03:50.104Z,20.40
2022-09-06T18:06:20.400Z,20.30
2022-09-06T18:08:50.181Z,20.20
2022-09-06T18:11:20.782Z,20.20
2022-09-06T18:13:47.966Z,20.20
2022-09-06T18:16:14.841Z,20.10
2022-09-06T18:18:41.852Z,20.10
2022-09-06T18:21:08.636Z,20.00
2022-09-06T18:23:35.971Z,19.90
2022-09-06T18:26:27.636Z,19.90
2022-09-06T18:28:54.725Z,19.80
2022-09-06T18:31:24.192Z,19.80
2022-09-06T18:33:51.369Z,19.80
2022-09-06T18:36:18.680Z,19.70
2022-09-06T18:38:46.140Z,19.70
2022-09-06T18:41:34.507Z,19.70
2022-09-06T18:44:02.813Z,19.70
2022-09-06T18:46:31.153Z,19.60
2022-09-06T18:48:58.594Z,19.60
2022-09-06T18:51:26.002Z,19.60
2022-09-06T18:53:53.135Z,19.60
2022-09-06T18:56:20.342Z,19.50
2022-09-06T18:58:46.997Z,19.50
2022-09-06T19:01:16.679Z,19.50
2022-09-06T19:03:43.870Z,19.50
2022-09-06T19:06:17.040Z,19.50
2022-09-06T19:08:44.416Z,19.50
2022-09-06T19:11:19.045Z,19.40
2022-09-06T19:13:49.587Z,19.50
2022-09-06T19:16:16.853Z,19.50
2022-09-06T19:18:43.999Z,19.60
2022-09-06T19:21:13.329Z,19.70
2022-09-06T19:23:42.194Z,19.90
2022-09-06T19:26:13.465Z,19.90
2022-09-06T19:28:40.678Z,20.00
2022-09-06T19:31:08.935Z,19.90
2022-09-06T19:33:36.444Z,19.90
2022-09-06T19:36:11.554Z,19.80
2022-09-06T19:39:01.601Z,19.80
2022-09-06T19:41:27.840Z,19.80
2022-09-06T19:43:56.453Z,19.70
2022-09-06T19:46:24.066Z,19.70
2022-09-06T19:48:53.540Z,19.70
2022-09-06T19:51:20.323Z,19.80
2022-09-06T19:53:53.119Z,19.70
2022-09-06T19:56:23.078Z,19.60
2022-09-06T19:58:55.220Z,19.70
2022-09-06T20:01:22.397Z,19.70
2022-09-06T20:03:49.071Z,19.70
2022-09-06T20:06:16.006Z,19.70
2022-09-06T20:08:43.031Z,19.70
2022-09-06T20:11:12.553Z,19.70
2022-09-06T20:13:39.903Z,19.70
2022-09-06T20:16:08.045Z,19.70
2022-09-06T20:18:35.534Z,19.70
2022-09-06T20:21:02.885Z,19.70
2022-09-06T20:23:31.068Z,19.70
2022-09-06T20:26:03.298Z,19.70
2022-09-06T20:28:30.438Z,19.60
2022-09-06T20:31:01.163Z,19.60
2022-09-06T20:33:28.714Z,19.60
2022-09-06T20:36:04.425Z,19.50
2022-09-06T20:38:32.601Z,19.50
2022-09-06T20:41:05.568Z,19.40
2022-09-06T20:43:36.417Z,19.40
2022-09-06T20:46:10.092Z,19.40
2022-09-06T20:48:42.133Z,19.30
2022-09-06T20:51:14.833Z,19.20
2022-09-06T20:53:42.013Z,19.20
2022-09-06T20:56:12.548Z,19.20
2022-09-06T20:58:40.062Z,19.30
2022-09-06T21:01:09.327Z,19.30
2022-09-06T21:03:40.804Z,19.20
2022-09-06T21:06:09.149Z,19.30
2022-09-06T21:08:40.710Z,19.40
2022-09-06T21:11:09.803Z,19.40
2022-09-06T21:13:36.998Z,19.40
2022-09-06T21:16:03.966Z,19.30
2022-09-06T21:18:31.378Z,19.30
2022-09-06T21:21:00.341Z,19.20
2022-09-06T21:23:29.098Z,19.10
2022-09-06T21:26:01.149Z,18.90
2022-09-06T21:28:32.891Z,19.00
2022-09-06T21:31:11.874Z,18.90
2022-09-06T21:33:47.954Z,18.80
2022-09-06T21:36:17.268Z,18.80
2022-09-06T21:38:46.763Z,18.80
2022-09-06T21:41:15.083Z,18.70
2022-09-06T21:43:43.042Z,18.70
2022-09-06T21:46:13.961Z,18.70
2022-09-06T21:48:42.590Z,18.60
2022-09-06T21:51:10.885Z,18.50
2022-09-06T21:53:37.784Z,18.40
2022-09-06T21:56:05.699Z,18.30
2022-09-06T21:58:32.771Z,18.20
2022-09-06T22:01:00.599Z,18.20
2022-09-06T22:03:29.909Z,18.20
2022-09-06T22:05:56.869Z,18.10
2022-09-06T22:08:24.617Z,17.90
2022-09-06T22:10:51.809Z,18.00
2022-09-06T22:13:20.298Z,18.00
2022-09-06T22:15:47.365Z,17.90
2022-09-06T22:18:14.097Z,17.90
2022-09-06T22:20:40.821Z,17.80
2022-09-06T22:23:09.928Z,17.80
2022-09-06T22:25:36.685Z,17.80
2022-09-06T22:28:03.682Z,17.80
2022-09-06T22:30:30.987Z,17.70
2022-09-06T22:32:58.071Z,17.70
2022-09-06T22:35:24.791Z,17.70
2022-09-06T22:37:51.743Z,17.70
2022-09-06T22:40:18.959Z,17.70
2022-09-06T22:42:45.891Z,17.60
2022-09-06T22:45:12.638Z,17.70
2022-09-06T22:47:39.354Z,17.70
2022-09-06T22:50:06.773Z,17.70
2022-09-06T22:52:33.487Z,17.70
2022-09-06T22:55:00.236Z,17.70
2022-09-06T22:57:27.243Z,17.70
2022-09-06T22:59:53.941Z,17.70
2022-09-06T23:02:20.630Z,17.60
2022-09-06T23:04:47.407Z,17.60
2022-09-06T23:07:14.192Z,17.60
2022-09-06T23:09:41.059Z,17.50
2022-09-06T23:12:07.861Z,17.50
2022-09-06T23:14:34.574Z,17.50
2022-09-06T23:17:01.257Z,17.40
2022-09-06T23:19:28.328Z,17.40
2022-09-06T23:21:55.008Z,17.30
2022-09-06T23:24:21.706Z,17.20
2022-09-06T23:26:48.688Z,17.20
2022-09-06T23:29:15.382Z,17.20
2022-09-06T23:31:42.593Z,17.10
2022-09-06T23:34:09.437Z,17.10
2022-09-06T23:36:36.417Z,17.10
2022-09-06T23:39:03.513Z,17.10
2022-09-06T23:41:30.256Z,17.00
2022-09-06T23:43:57.431Z,17.00
2022-09-06T23:46:24.247Z,17.00
2022-09-06T23:48:51.057Z,17.00
2022-09-06T23:51:18.086Z,16.90
2022-09-06T23:53:44.817Z,16.90
2022-09-06T23:56:12.448Z,16.90
2022-09-06T23:58:39.639Z,16.90
